Time;durP1;ratioP1;P1;durP2;ratioP2;P2;SDS_P1;SDS_P2;PMS_P1;PMS_P2;Temp;Humidity;BMP_temperature;BMP_pressure;BME280_temperature;BME280_humidity;BME280_pressure;Samples;Min_cycle;Max_cycle;Signal;HPM_P1;HPM_P2
2020/12/18 00:02:33;;;;;;;11.00;9.90;;;9.90;99.90;;;;;;5036521;28;20796;-65
2020/12/18 00:05:17;;;;;;;13.93;9.70;;;9.90;99.90;;;;;;5011763;28;20980;-65
2020/12/18 00:08:02;;;;;;;13.13;9.30;;;9.80;99.90;;;;;;5036996;28;21225;-65
2020/12/18 00:10:46;;;;;;;12.03;10.10;;;9.70;99.90;;;;;;5007097;28;20824;-65
2020/12/18 00:13:31;;;;;;;14.63;10.10;;;9.70;99.90;;;;;;5005815;28;20647;-65
2020/12/18 00:16:16;;;;;;;12.33;10.67;;;9.70;99.90;;;;;;4998125;28;21050;-65
2020/12/18 00:19:00;;;;;;;11.33;9.87;;;9.60;99.90;;;;;;5026478;28;21194;-65
2020/12/18 00:21:45;;;;;;;11.40;9.73;;;9.70;99.90;;;;;;5005340;28;20759;-66
2020/12/18 00:24:29;;;;;;;13.30;10.40;;;9.70;99.90;;;;;;5004375;28;20961;-65
2020/12/18 00:27:15;;;;;;;10.70;9.60;;;9.70;99.90;;;;;;5003044;28;20689;-64
2020/12/18 00:30:00;;;;;;;10.10;9.00;;;9.60;99.90;;;;;;5009619;28;20620;-65
2020/12/18 00:32:48;;;;;;;10.70;9.60;;;9.60;99.90;;;;;;4995605;28;21359;-65
2020/12/18 00:35:33;;;;;;;11.13;9.97;;;9.60;99.90;;;;;;5003283;28;20765;-64
2020/12/18 00:38:17;;;;;;;12.50;10.53;;;9.50;99.90;;;;;;5002766;28;20624;-64
2020/12/18 00:41:06;;;;;;;11.70;8.90;;;9.50;99.90;;;;;;4999480;28;22874;-64
2020/12/18 00:43:50;;;;;;;10.07;8.97;;;9.50;99.90;;;;;;5024380;28;20762;-65
2020/12/18 00:46:41;;;;;;;12.30;9.90;;;9.40;99.90;;;;;;5018617;28;20643;-64
2020/12/18 00:49:25;;;;;;;10.93;9.60;;;9.40;99.90;;;;;;5034453;28;20595;-65
2020/12/18 00:52:10;;;;;;;10.93;9.90;;;9.30;99.90;;;;;;5035277;28;20965;-65
2020/12/18 00:54:54;;;;;;;10.30;9.30;;;9.30;99.90;;;;;;5000744;28;20744;-65
2020/12/18 00:57:39;;;;;;;12.07;10.17;;;9.30;99.90;;;;;;5002924;28;20682;-64
2020/12/18 01:00:23;;;;;;;12.27;9.50;;;9.30;99.90;;;;;;5001000;28;20696;-64
2020/12/18 01:03:08;;;;;;;10.43;8.97;;;9.30;99.90;;;;;;5017890;28;20670;-64
2020/12/18 01:05:53;;;;;;;10.17;9.10;;;9.20;99.90;;;;;;5032536;28;20662;-64
2020/12/18 01:08:38;;;;;;;12.00;9.70;;;9.20;99.90;;;;;;5000064;28;20618;-63
2020/12/18 01:11:22;;;;;;;12.47;9.87;;;9.20;99.90;;;;;;5007292;28;20762;-63
2020/12/18 01:14:07;;;;;;;11.13;10.03;;;9.20;99.90;;;;;;5007776;28;20988;-63
2020/12/18 01:16:55;;;;;;;14.60;9.73;;;9.20;99.90;;;;;;5014899;28;20651;-64
2020/12/18 01:19:40;;;;;;;10.57;9.50;;;9.10;99.90;;;;;;5009139;28;20591;-64
2020/12/18 01:22:25;;;;;;;11.80;8.70;;;9.20;99.90;;;;;;5033869;28;20639;-64
2020/12/18 01:25:12;;;;;;;10.97;9.77;;;9.10;99.90;;;;;;4999085;28;20738;-64
2020/12/18 01:27:56;;;;;;;11.70;9.10;;;9.20;99.90;;;;;;5010529;28;20627;-64
2020/12/18 01:30:40;;;;;;;11.90;9.70;;;9.20;99.90;;;;;;5003056;28;20603;-64
2020/12/18 01:33:25;;;;;;;12.07;9.47;;;9.10;99.90;;;;;;5001960;28;20952;-63
2020/12/18 01:36:10;;;;;;;13.07;9.63;;;9.10;99.90;;;;;;5032819;28;21386;-64
2020/12/18 01:38:54;;;;;;;11.97;9.40;;;9.20;99.90;;;;;;5002784;28;21015;-64
2020/12/18 01:41:38;;;;;;;11.10;9.37;;;9.20;99.90;;;;;;5011473;28;20647;-63
2020/12/18 01:44:23;;;;;;;12.67;9.80;;;9.30;99.90;;;;;;5014339;28;20709;-64
2020/12/18 01:47:26;;;;;;;11.50;9.73;;;9.40;99.90;;;;;;5010580;28;20674;-64
2020/12/18 01:50:11;;;;;;;12.33;10.40;;;9.40;99.90;;;;;;5007003;28;20651;-63
2020/12/18 01:52:56;;;;;;;11.53;8.93;;;9.40;99.90;;;;;;5006649;28;20759;-64
2020/12/18 01:55:41;;;;;;;12.80;9.30;;;9.40;99.90;;;;;;5008063;28;21222;-63
2020/12/18 01:58:25;;;;;;;12.17;9.10;;;9.40;99.90;;;;;;5026185;28;20644;-64
2020/12/18 02:01:10;;;;;;;9.30;8.30;;;9.40;99.90;;;;;;4996006;28;20771;-63
2020/12/18 02:03:55;;;;;;;10.70;9.60;;;9.40;99.90;;;;;;5015850;28;20747;-64
2020/12/18 02:06:45;;;;;;;11.43;9.13;;;9.40;99.90;;;;;;5006580;28;20936;-63
2020/12/18 02:09:30;;;;;;;12.33;9.50;;;9.40;99.90;;;;;;5022572;28;20548;-63
2020/12/18 02:12:14;;;;;;;11.33;9.33;;;9.40;99.90;;;;;;5026739;28;20699;-62
2020/12/18 02:14:59;;;;;;;11.40;9.90;;;9.40;99.90;;;;;;5007901;28;20647;-62
2020/12/18 02:17:44;;;;;;;11.13;9.10;;;9.40;99.90;;;;;;5025916;28;21182;-63
2020/12/18 02:20:30;;;;;;;14.23;9.40;;;9.40;99.90;;;;;;5009223;28;20608;-62
2020/12/18 02:23:15;;;;;;;13.73;9.00;;;9.30;99.90;;;;;;5022467;28;20709;-64
2020/12/18 02:26:10;;;;;;;10.07;8.93;;;9.30;99.90;;;;;;5010623;28;20741;-64
2020/12/18 02:28:55;;;;;;;10.80;9.70;;;9.20;99.90;;;;;;5003475;28;20739;-62
2020/12/18 02:31:39;;;;;;;11.10;9.70;;;9.20;99.90;;;;;;4989484;28;20719;-64
2020/12/18 02:34:25;;;;;;;11.57;9.87;;;9.30;99.90;;;;;;5034118;28;20591;-63
2020/12/18 02:37:10;;;;;;;15.37;9.40;;;9.30;99.90;;;;;;5026190;28;20652;-63
2020/12/18 02:40:02;;;;;;;11.20;10.00;;;9.30;99.90;;;;;;5030935;28;20683;-63
2020/12/18 02:42:46;;;;;;;14.20;10.77;;;9.20;99.90;;;;;;5007199;28;20659;-63
2020/12/18 02:45:31;;;;;;;10.93;9.97;;;9.30;99.90;;;;;;5014128;28;20806;-63
2020/12/18 02:48:17;;;;;;;13.20;11.10;;;9.20;99.90;;;;;;4991438;28;20955;-63
2020/12/18 02:51:02;;;;;;;11.30;10.13;;;9.20;99.90;;;;;;4992000;28;20643;-64
2020/12/18 02:53:46;;;;;;;12.47;11.20;;;9.20;99.90;;;;;;5009540;28;20920;-63
2020/12/18 02:56:32;;;;;;;13.43;11.30;;;9.20;99.90;;;;;;5049444;22;20703;-70
2020/12/18 02:59:16;;;;;;;13.97;11.83;;;9.20;99.90;;;;;;5020174;28;20627;-70
2020/12/18 03:02:00;;;;;;;14.07;12.57;;;9.20;99.90;;;;;;4996770;28;20800;-70
2020/12/18 03:04:45;;;;;;;15.97;11.67;;;9.20;99.90;;;;;;5012503;28;20591;-70
2020/12/18 03:07:29;;;;;;;15.20;11.23;;;9.30;99.90;;;;;;5008124;28;20595;-70
2020/12/18 03:10:14;;;;;;;13.33;12.10;;;9.10;99.90;;;;;;4991992;28;21205;-70
2020/12/18 03:12:59;;;;;;;13.33;11.67;;;9.10;99.90;;;;;;4994669;28;20767;-70
2020/12/18 03:15:43;;;;;;;15.67;12.13;;;9.20;99.90;;;;;;5001763;28;20672;-70
2020/12/18 03:18:27;;;;;;;14.57;12.23;;;9.10;99.90;;;;;;5000860;28;20674;-70
2020/12/18 03:21:12;;;;;;;14.90;12.00;;;9.10;99.90;;;;;;4987968;28;20648;-70
2020/12/18 03:23:57;;;;;;;13.27;11.47;;;9.20;99.90;;;;;;4999680;28;20731;-70
2020/12/18 03:26:41;;;;;;;12.90;11.30;;;9.20;99.90;;;;;;5005590;28;20658;-70
2020/12/18 03:29:26;;;;;;;14.43;13.00;;;9.20;99.90;;;;;;4993896;28;20623;-70
2020/12/18 03:32:10;;;;;;;12.93;11.60;;;9.20;99.90;;;;;;4979903;28;20651;-70
2020/12/18 03:34:54;;;;;;;15.00;11.87;;;9.10;99.90;;;;;;4996866;28;23141;-69
2020/12/18 03:37:39;;;;;;;13.30;11.87;;;9.10;99.90;;;;;;5004604;28;20603;-69
2020/12/18 03:40:27;;;;;;;12.90;11.07;;;9.10;99.90;;;;;;5009816;28;20583;-69
2020/12/18 03:43:11;;;;;;;17.70;11.97;;;9.10;99.90;;;;;;4964517;28;20664;-69
2020/12/18 03:45:56;;;;;;;16.40;13.57;;;9.10;99.90;;;;;;4973880;28;20736;-70
2020/12/18 03:48:44;;;;;;;12.10;10.90;;;9.20;99.90;;;;;;4978745;28;20729;-70
2020/12/18 03:51:28;;;;;;;13.70;12.30;;;9.20;99.90;;;;;;4970386;28;20668;-69
2020/12/18 03:54:13;;;;;;;14.50;12.93;;;9.20;99.90;;;;;;4984830;28;21270;-70
2020/12/18 03:57:05;;;;;;;13.50;12.17;;;9.20;99.90;;;;;;4972287;28;21096;-69
2020/12/18 03:59:49;;;;;;;14.37;11.90;;;9.30;99.90;;;;;;4963132;28;21179;-70
2020/12/18 04:02:34;;;;;;;13.13;11.83;;;9.20;99.90;;;;;;4976217;28;21010;-70
2020/12/18 04:05:18;;;;;;;13.23;11.83;;;9.20;99.90;;;;;;4978206;28;20656;-70
2020/12/18 04:08:06;;;;;;;13.57;12.10;;;9.20;99.90;;;;;;4977689;28;20608;-69
2020/12/18 04:10:51;;;;;;;13.87;12.47;;;9.30;99.90;;;;;;4971642;28;21331;-70
2020/12/18 04:13:36;;;;;;;14.10;12.63;;;9.30;99.90;;;;;;4970637;28;20801;-69
2020/12/18 04:16:20;;;;;;;14.50;12.53;;;9.30;99.90;;;;;;4983533;28;20672;-70
2020/12/18 04:19:05;;;;;;;15.37;13.67;;;9.20;99.90;;;;;;4981237;28;20736;-69
2020/12/18 04:21:50;;;;;;;15.37;12.70;;;9.20;99.90;;;;;;4981029;28;21372;-70
2020/12/18 04:24:34;;;;;;;14.23;12.80;;;9.20;99.90;;;;;;4974258;28;20593;-70
2020/12/18 04:27:19;;;;;;;14.10;12.70;;;9.20;99.90;;;;;;4976106;28;20601;-69
2020/12/18 04:30:04;;;;;;;13.83;12.03;;;9.30;99.90;;;;;;4989778;28;20708;-70
2020/12/18 04:32:50;;;;;;;14.80;13.13;;;9.20;99.90;;;;;;4982720;28;20640;-70
2020/12/18 04:35:34;;;;;;;15.27;13.70;;;9.20;99.90;;;;;;4986361;28;20656;-70
2020/12/18 04:38:18;;;;;;;13.33;11.93;;;9.10;99.90;;;;;;4983511;28;20685;-70
2020/12/18 04:41:03;;;;;;;18.17;12.97;;;9.10;99.90;;;;;;4985074;28;20644;-69
2020/12/18 04:43:50;;;;;;;16.50;13.17;;;9.20;99.90;;;;;;5018892;28;20687;-69
2020/12/18 04:46:37;;;;;;;14.63;12.43;;;9.20;99.90;;;;;;4988387;28;20709;-69
2020/12/18 04:49:22;;;;;;;15.83;13.00;;;9.20;99.90;;;;;;4973681;28;20613;-69
2020/12/18 04:52:12;;;;;;;15.13;13.10;;;9.10;99.90;;;;;;4998328;28;21341;-69
2020/12/18 04:55:00;;;;;;;16.77;12.80;;;9.10;99.90;;;;;;4991537;28;20572;-69
2020/12/18 04:57:48;;;;;;;16.63;12.50;;;9.20;99.90;;;;;;4970506;28;20700;-69
2020/12/18 05:00:34;;;;;;;13.43;11.97;;;9.20;99.90;;;;;;4970874;28;20643;-69
2020/12/18 05:03:20;;;;;;;15.43;12.03;;;9.20;99.90;;;;;;5003387;28;20633;-69
2020/12/18 05:06:06;;;;;;;15.87;12.17;;;9.20;99.90;;;;;;4973693;28;20697;-69
2020/12/18 05:08:50;;;;;;;13.90;12.60;;;9.10;99.90;;;;;;4984557;28;20698;-69
2020/12/18 05:11:35;;;;;;;16.13;12.80;;;9.20;99.90;;;;;;4979975;28;20645;-70
2020/12/18 05:14:28;;;;;;;13.33;11.90;;;9.20;99.90;;;;;;4983361;28;20624;-69
2020/12/18 05:17:13;;;;;;;15.50;12.30;;;9.20;99.90;;;;;;4987972;28;20651;-69
2020/12/18 05:19:58;;;;;;;13.90;11.90;;;9.20;99.90;;;;;;4983834;28;20598;-69
2020/12/18 05:22:43;;;;;;;15.43;12.80;;;9.20;99.90;;;;;;4977958;28;21152;-69
2020/12/18 05:25:28;;;;;;;15.73;12.00;;;9.30;99.90;;;;;;4976175;28;21022;-70
2020/12/18 05:28:19;;;;;;;13.63;11.20;;;9.30;99.90;;;;;;4995023;28;20576;-70
2020/12/18 05:31:16;;;;;;;15.90;12.10;;;9.30;99.90;;;;;;4983596;28;20640;-71
2020/12/18 05:34:02;;;;;;;14.20;11.00;;;9.20;99.90;;;;;;4980641;28;20633;-70
2020/12/18 05:36:47;;;;;;;13.00;11.13;;;9.30;99.90;;;;;;4979401;28;21242;-70
2020/12/18 05:39:36;;;;;;;14.80;11.10;;;9.30;99.90;;;;;;4987556;28;20967;-70
2020/12/18 05:42:20;;;;;;;14.83;10.70;;;9.30;99.90;;;;;;4974785;28;20717;-70
2020/12/18 05:45:19;;;;;;;13.67;12.00;;;9.30;99.90;;;;;;4974319;28;21184;-70
2020/12/18 05:48:04;;;;;;;12.07;10.33;;;9.30;99.90;;;;;;4972670;28;21159;-69
2020/12/18 05:50:48;;;;;;;14.77;12.07;;;9.20;99.90;;;;;;4973817;28;20584;-70
2020/12/18 05:53:35;;;;;;;12.83;11.53;;;9.10;99.90;;;;;;4973457;28;21119;-69
2020/12/18 05:56:29;;;;;;;12.77;11.10;;;9.10;99.90;;;;;;4971713;28;20663;-69
2020/12/18 05:59:17;;;;;;;13.00;11.53;;;9.10;99.90;;;;;;4986518;28;21166;-69
2020/12/18 06:02:09;;;;;;;13.07;11.17;;;9.00;99.90;;;;;;4976533;28;20682;-68
2020/12/18 06:04:56;;;;;;;14.20;11.47;;;9.10;99.90;;;;;;4976653;28;20729;-71
2020/12/18 06:07:41;;;;;;;12.67;11.27;;;9.10;99.90;;;;;;4974405;28;20623;-71
2020/12/18 06:10:25;;;;;;;15.33;11.80;;;9.00;99.90;;;;;;4980828;28;21012;-71
2020/12/18 06:13:10;;;;;;;13.10;11.70;;;9.00;99.90;;;;;;4979759;28;20696;-70
2020/12/18 06:15:59;;;;;;;15.63;11.23;;;9.00;99.90;;;;;;4983619;28;20735;-70
2020/12/18 06:18:44;;;;;;;13.37;11.43;;;9.00;99.90;;;;;;5001171;28;21143;-68
2020/12/18 06:21:29;;;;;;;16.87;11.70;;;9.00;99.90;;;;;;4970364;28;20991;-70
2020/12/18 06:24:14;;;;;;;14.63;11.73;;;8.90;99.90;;;;;;4973839;28;21618;-70
2020/12/18 06:26:58;;;;;;;15.17;11.73;;;8.80;99.90;;;;;;4969206;28;20656;-70
2020/12/18 06:29:44;;;;;;;14.53;12.33;;;8.70;99.90;;;;;;4976203;28;20600;-69
2020/12/18 06:32:30;;;;;;;17.73;12.80;;;8.80;99.90;;;;;;4966495;28;21090;-69
2020/12/18 06:35:36;;;;;;;14.87;11.87;;;8.70;99.90;;;;;;4965221;28;20879;-70
2020/12/18 06:38:20;;;;;;;14.70;12.90;;;8.70;99.90;;;;;;4971045;28;20736;-69
2020/12/18 06:41:24;;;;;;;15.93;12.13;;;8.70;99.90;;;;;;4971981;28;20651;-69
2020/12/18 06:44:32;;;;;;;14.83;12.70;;;8.70;99.90;;;;;;4976173;28;20714;-70
2020/12/18 06:47:20;;;;;;;15.03;12.33;;;8.60;99.90;;;;;;4971063;28;20589;-70
2020/12/18 06:50:10;;;;;;;18.63;13.50;;;8.60;99.90;;;;;;4968232;28;20709;-70
2020/12/18 06:53:04;;;;;;;15.17;13.07;;;8.60;99.90;;;;;;4964992;28;20688;-70
2020/12/18 06:55:49;;;;;;;16.63;12.53;;;8.50;99.90;;;;;;4969479;28;21305;-69
2020/12/18 06:58:33;;;;;;;13.90;12.10;;;8.50;99.90;;;;;;4976025;28;20601;-69
2020/12/18 07:01:31;;;;;;;13.73;12.07;;;8.50;99.90;;;;;;4970977;28;21994;-69
2020/12/18 07:04:19;;;;;;;14.70;12.00;;;8.40;99.90;;;;;;4976214;28;20592;-69
2020/12/18 07:07:22;;;;;;;15.33;12.33;;;8.40;99.90;;;;;;4976542;28;21139;-68
2020/12/18 07:10:08;;;;;;;15.47;12.73;;;8.40;99.90;;;;;;4968097;28;20628;-71
2020/12/18 07:12:57;;;;;;;14.70;12.40;;;8.40;99.90;;;;;;4951514;28;20668;-71
2020/12/18 07:15:44;;;;;;;16.30;12.67;;;8.40;99.90;;;;;;4970789;28;20663;-70
2020/12/18 07:18:33;;;;;;;16.43;12.60;;;8.40;99.90;;;;;;4976374;28;20590;-70
2020/12/18 07:21:19;;;;;;;17.57;12.90;;;8.40;99.90;;;;;;4975552;28;20723;-70
2020/12/18 07:24:03;;;;;;;16.37;11.83;;;8.40;99.90;;;;;;4977724;28;20600;-70
2020/12/18 07:26:50;;;;;;;14.87;12.63;;;8.40;99.90;;;;;;4977990;28;21024;-70
2020/12/18 07:29:36;;;;;;;15.07;12.53;;;8.30;99.90;;;;;;4979506;28;20723;-70
2020/12/18 07:32:21;;;;;;;16.53;11.90;;;8.30;99.90;;;;;;4981082;28;20657;-70
2020/12/18 07:35:07;;;;;;;15.73;12.50;;;8.30;99.90;;;;;;4975051;28;20762;-69
2020/12/18 07:37:52;;;;;;;15.80;12.67;;;8.20;99.90;;;;;;4972584;28;20992;-69
2020/12/18 07:40:37;;;;;;;17.73;12.73;;;8.20;99.90;;;;;;4977229;28;20580;-68
2020/12/18 07:43:26;;;;;;;16.90;12.40;;;8.10;99.90;;;;;;4974927;28;21211;-69
2020/12/18 07:46:18;;;;;;;18.60;12.80;;;8.20;99.90;;;;;;4983002;28;21037;-70
2020/12/18 07:49:10;;;;;;;17.30;11.83;;;8.30;99.90;;;;;;4970359;28;20892;-70
2020/12/18 07:51:55;;;;;;;15.30;12.87;;;8.20;99.90;;;;;;5017497;28;21362;-69
2020/12/18 07:54:39;;;;;;;17.20;11.80;;;8.20;99.90;;;;;;5001783;28;21278;-68
2020/12/18 07:57:24;;;;;;;18.07;12.10;;;8.20;99.90;;;;;;4999749;28;20670;-70
2020/12/18 08:00:10;;;;;;;15.57;11.37;;;8.20;99.90;;;;;;5000818;28;20676;-70
2020/12/18 08:02:54;;;;;;;15.70;12.13;;;8.10;99.90;;;;;;5001798;28;21225;-69
2020/12/18 08:05:43;;;;;;;15.73;12.40;;;8.20;99.90;;;;;;5004545;28;20650;-70
2020/12/18 08:08:29;;;;;;;14.07;11.43;;;8.20;99.90;;;;;;5001771;28;20768;-70
2020/12/18 08:11:18;;;;;;;14.10;11.03;;;8.20;99.90;;;;;;5001907;28;20764;-70
2020/12/18 08:14:05;;;;;;;12.13;10.67;;;8.10;99.90;;;;;;5004487;28;20682;-70
2020/12/18 08:16:49;;;;;;;11.73;10.53;;;8.20;99.90;;;;;;5005922;28;20681;-70
2020/12/18 08:19:34;;;;;;;18.07;10.67;;;8.10;99.90;;;;;;5006605;28;20596;-70
2020/12/18 08:22:24;;;;;;;13.00;11.00;;;8.10;99.90;;;;;;4997288;28;21101;-71
2020/12/18 08:25:13;;;;;;;13.83;10.13;;;8.00;99.90;;;;;;5010513;28;20659;-70
2020/12/18 08:28:01;;;;;;;12.53;9.97;;;8.10;99.90;;;;;;5001810;28;21249;-69
2020/12/18 08:30:48;;;;;;;14.60;10.33;;;8.20;99.90;;;;;;5004820;28;20960;-69
2020/12/18 08:33:46;;;;;;;13.03;10.20;;;8.10;99.90;;;;;;5005770;28;20727;-70
2020/12/18 08:36:35;;;;;;;14.63;9.60;;;8.00;99.90;;;;;;5004014;28;20715;-71
2020/12/18 08:39:20;;;;;;;15.37;9.40;;;8.10;99.90;;;;;;5007681;28;20571;-69
2020/12/18 08:42:05;;;;;;;15.07;9.63;;;8.20;99.90;;;;;;5008860;28;20719;-71
2020/12/18 08:44:52;;;;;;;11.07;8.87;;;8.20;99.90;;;;;;4999878;28;20612;-71
2020/12/18 08:47:36;;;;;;;13.73;8.10;;;8.20;99.90;;;;;;5014251;28;20599;-71
2020/12/18 08:50:21;;;;;;;12.30;8.67;;;8.10;99.90;;;;;;5007395;28;20992;-71
2020/12/18 08:53:14;;;;;;;12.00;8.37;;;8.10;99.90;;;;;;5022962;28;20639;-69
2020/12/18 08:56:03;;;;;;;12.60;7.80;;;8.10;99.90;;;;;;5022780;22;20703;-67
2020/12/18 08:59:00;;;;;;;10.73;8.03;;;8.00;99.90;;;;;;5024504;28;20635;-66
2020/12/18 09:01:49;;;;;;;9.40;7.87;;;8.00;99.90;;;;;;5002389;28;20771;-67
2020/12/18 09:04:33;;;;;;;10.80;7.17;;;8.00;99.90;;;;;;5008756;28;20929;-67
2020/12/18 09:07:18;;;;;;;12.17;7.70;;;8.00;99.90;;;;;;5004436;28;20658;-66
2020/12/18 09:10:02;;;;;;;10.80;7.47;;;8.00;99.90;;;;;;5011754;28;20607;-67
2020/12/18 09:12:47;;;;;;;9.90;7.30;;;8.00;99.90;;;;;;5009489;28;20657;-66
2020/12/18 09:15:31;;;;;;;10.93;7.07;;;8.10;99.90;;;;;;5009724;28;20618;-67
2020/12/18 09:18:22;;;;;;;9.23;7.50;;;8.10;99.90;;;;;;5009274;28;21001;-66
2020/12/18 09:21:18;;;;;;;9.27;7.67;;;8.00;99.90;;;;;;5011228;28;20659;-66
2020/12/18 09:24:24;;;;;;;8.27;7.30;;;8.10;99.90;;;;;;5008101;28;21150;-67
2020/12/18 09:27:13;;;;;;;10.90;7.50;;;8.10;99.90;;;;;;5018257;28;20654;-67
2020/12/18 09:29:59;;;;;;;8.80;7.07;;;8.00;99.90;;;;;;5005509;28;20602;-65
2020/12/18 09:32:43;;;;;;;8.00;6.30;;;8.10;99.90;;;;;;5008437;28;20643;-68
2020/12/18 09:35:28;;;;;;;7.83;6.97;;;8.20;99.90;;;;;;5019921;28;20611;-66
2020/12/18 09:38:12;;;;;;;9.30;6.90;;;8.30;99.90;;;;;;5002678;28;20615;-66
2020/12/18 09:40:58;;;;;;;8.50;7.40;;;8.30;99.90;;;;;;5004716;28;21231;-68
2020/12/18 09:43:43;;;;;;;8.30;6.50;;;8.30;99.90;;;;;;5009603;28;20679;-66
2020/12/18 09:46:28;;;;;;;9.40;7.27;;;8.30;99.90;;;;;;5013896;28;20659;-66
2020/12/18 09:49:12;;;;;;;8.00;7.10;;;8.40;99.90;;;;;;5030871;28;20615;-66
2020/12/18 09:51:57;;;;;;;8.90;6.27;;;8.50;99.90;;;;;;5004780;28;20631;-65
2020/12/18 09:54:44;;;;;;;9.17;7.70;;;8.40;99.90;;;;;;5005711;28;20614;-66
2020/12/18 09:57:28;;;;;;;8.23;6.93;;;8.40;99.90;;;;;;5020259;28;20670;-71
2020/12/18 10:00:13;;;;;;;9.10;7.63;;;8.50;99.90;;;;;;5008830;28;20602;-71
2020/12/18 10:02:58;;;;;;;10.83;7.17;;;8.50;99.90;;;;;;5010664;28;20643;-71
2020/12/18 10:05:47;;;;;;;9.43;7.40;;;8.40;99.90;;;;;;5008651;28;21153;-71
2020/12/18 10:08:32;;;;;;;9.10;6.60;;;8.40;99.90;;;;;;5008479;28;20633;-71
2020/12/18 10:11:17;;;;;;;7.40;6.70;;;8.50;99.90;;;;;;5002921;28;20643;-70
2020/12/18 10:14:02;;;;;;;12.10;7.00;;;8.40;99.90;;;;;;5007131;28;20591;-69
2020/12/18 10:16:46;;;;;;;9.40;6.97;;;8.50;99.90;;;;;;5007464;28;20674;-68
2020/12/18 10:19:31;;;;;;;8.57;6.83;;;8.50;99.90;;;;;;5014295;28;20595;-67
2020/12/18 10:22:15;;;;;;;9.30;6.97;;;8.40;99.90;;;;;;5005489;28;20650;-70
2020/12/18 10:25:00;;;;;;;7.53;6.63;;;8.50;99.90;;;;;;5018484;28;20665;-70
2020/12/18 10:27:45;;;;;;;7.47;5.83;;;8.70;99.90;;;;;;5026473;28;20676;-70
2020/12/18 10:30:29;;;;;;;7.10;6.40;;;8.80;99.90;;;;;;5017644;28;20968;-72
2020/12/18 10:33:14;;;;;;;6.40;5.80;;;8.80;99.90;;;;;;5008775;28;20722;-67
2020/12/18 10:35:58;;;;;;;6.60;5.93;;;9.00;99.90;;;;;;5024743;28;20658;-73
2020/12/18 10:38:43;;;;;;;7.07;6.17;;;9.10;99.90;;;;;;5013793;28;20693;-73
2020/12/18 10:41:30;;;;;;;6.37;5.17;;;9.20;99.90;;;;;;5014350;28;20749;-70
2020/12/18 10:44:14;;;;;;;8.33;5.30;;;9.20;99.90;;;;;;5010107;28;21142;-70
2020/12/18 10:46:59;;;;;;;5.60;5.00;;;9.30;99.90;;;;;;5008133;28;20662;-69
2020/12/18 10:49:44;;;;;;;6.00;5.23;;;9.30;99.90;;;;;;5015981;28;20665;-72
2020/12/18 10:52:28;;;;;;;5.80;5.20;;;9.40;99.90;;;;;;5007271;28;20990;-68
2020/12/18 10:55:13;;;;;;;5.90;4.80;;;9.40;99.90;;;;;;5013506;28;21169;-65
2020/12/18 10:57:57;;;;;;;4.77;4.37;;;9.60;99.90;;;;;;5017992;28;20621;-65
2020/12/18 11:00:42;;;;;;;7.23;5.37;;;9.70;99.90;;;;;;5008892;28;21280;-65
2020/12/18 11:03:27;;;;;;;6.57;5.23;;;9.80;99.90;;;;;;5016692;28;20626;-65
2020/12/18 11:06:11;;;;;;;5.97;4.90;;;9.80;99.90;;;;;;5013930;28;20672;-68
2020/12/18 11:08:57;;;;;;;5.87;5.27;;;9.80;99.90;;;;;;5016033;28;21138;-69
2020/12/18 11:11:45;;;;;;;5.30;4.80;;;9.80;99.90;;;;;;5016485;28;21157;-68
2020/12/18 11:14:29;;;;;;;6.70;4.90;;;9.80;99.90;;;;;;5017375;28;20634;-68
2020/12/18 11:17:14;;;;;;;6.53;5.13;;;9.70;99.90;;;;;;5008429;28;20654;-71
2020/12/18 11:19:59;;;;;;;6.30;4.80;;;9.80;99.90;;;;;;5007377;28;20602;-65
2020/12/18 11:22:43;;;;;;;8.00;4.70;;;9.90;99.90;;;;;;5006693;28;21185;-66
2020/12/18 11:25:28;;;;;;;6.93;4.60;;;9.80;99.90;;;;;;5024842;28;20626;-66
2020/12/18 11:28:12;;;;;;;6.90;5.17;;;9.90;99.90;;;;;;5003723;28;20596;-66
2020/12/18 11:30:57;;;;;;;5.30;4.47;;;9.90;99.90;;;;;;5000628;28;20642;-65
2020/12/18 11:33:41;;;;;;;5.83;4.73;;;10.00;99.90;;;;;;5004158;28;21239;-73
2020/12/18 11:36:26;;;;;;;6.20;4.97;;;10.00;99.90;;;;;;5005041;28;21240;-66
2020/12/18 11:39:10;;;;;;;5.00;4.60;;;10.10;99.90;;;;;;5013260;28;20804;-67
2020/12/18 11:41:55;;;;;;;5.00;4.37;;;10.10;99.90;;;;;;5011674;28;20645;-66
2020/12/18 11:44:39;;;;;;;6.07;4.90;;;10.20;99.90;;;;;;5025687;28;20567;-66
2020/12/18 11:47:26;;;;;;;5.13;4.30;;;10.30;99.90;;;;;;5016555;28;20654;-66
2020/12/18 11:50:11;;;;;;;5.63;4.50;;;10.40;99.90;;;;;;5021506;28;20607;-65
2020/12/18 11:52:57;;;;;;;5.40;4.90;;;10.50;99.90;;;;;;5019135;28;20638;-66
2020/12/18 11:55:42;;;;;;;5.90;4.30;;;10.50;99.90;;;;;;5008751;28;20642;-66
2020/12/18 11:58:29;;;;;;;6.63;4.70;;;10.50;99.90;;;;;;5002328;28;21194;-66
2020/12/18 12:01:21;;;;;;;4.43;4.03;;;10.60;99.90;;;;;;5012296;28;20659;-66
2020/12/18 12:04:06;;;;;;;7.07;4.27;;;10.50;99.90;;;;;;5013471;28;20749;-67
2020/12/18 12:06:50;;;;;;;4.63;4.17;;;10.50;99.90;;;;;;5004115;28;20773;-67
2020/12/18 12:09:35;;;;;;;9.60;6.23;;;10.60;99.90;;;;;;5026612;28;21180;-66
2020/12/18 12:12:20;;;;;;;5.50;4.20;;;10.70;99.90;;;;;;5011382;28;20641;-64
2020/12/18 12:15:06;;;;;;;4.37;3.90;;;10.70;99.90;;;;;;5004729;28;20603;-65
2020/12/18 12:17:51;;;;;;;5.53;3.93;;;10.60;99.90;;;;;;5007787;28;20754;-65
2020/12/18 12:20:35;;;;;;;5.13;4.30;;;10.60;99.90;;;;;;5010758;28;20630;-65
2020/12/18 12:23:20;;;;;;;6.30;4.30;;;10.60;99.90;;;;;;5009093;28;20765;-64
2020/12/18 12:26:05;;;;;;;5.10;3.93;;;10.50;99.90;;;;;;5008363;28;20658;-65
2020/12/18 12:28:49;;;;;;;6.70;4.30;;;10.60;99.90;;;;;;5008043;28;20812;-66
2020/12/18 12:31:34;;;;;;;5.90;4.53;;;10.60;99.90;;;;;;5010159;28;20786;-65
2020/12/18 12:34:18;;;;;;;4.93;4.00;;;10.60;99.90;;;;;;5020124;28;20671;-64
2020/12/18 12:37:02;;;;;;;4.70;4.10;;;10.80;99.90;;;;;;5007381;28;20941;-65
2020/12/18 12:39:48;;;;;;;4.50;4.10;;;10.80;99.90;;;;;;5015856;28;20646;-65
2020/12/18 12:42:36;;;;;;;6.23;3.87;;;10.80;99.90;;;;;;5011006;28;20789;-66
2020/12/18 12:45:21;;;;;;;4.17;3.77;;;10.70;99.90;;;;;;5022079;28;21221;-65
2020/12/18 12:48:05;;;;;;;6.83;3.90;;;10.80;99.90;;;;;;5008553;28;20623;-65
2020/12/18 12:50:49;;;;;;;5.00;3.60;;;10.80;99.90;;;;;;5010847;28;20591;-65
2020/12/18 12:53:34;;;;;;;3.80;3.40;;;10.80;99.90;;;;;;5023129;28;20594;-64
2020/12/18 12:56:18;;;;;;;6.50;3.53;;;10.80;99.90;;;;;;5029073;28;20681;-65
2020/12/18 12:59:03;;;;;;;3.63;3.33;;;10.80;99.90;;;;;;5029190;28;21263;-65
2020/12/18 13:01:48;;;;;;;4.80;3.80;;;10.80;99.90;;;;;;5027402;28;20638;-64
2020/12/18 13:04:32;;;;;;;6.00;4.00;;;10.70;99.90;;;;;;5028332;28;21082;-65
2020/12/18 13:07:17;;;;;;;7.27;3.37;;;10.70;99.90;;;;;;5015696;28;20665;-64
2020/12/18 13:10:02;;;;;;;5.03;4.13;;;10.70;99.90;;;;;;5001639;28;20616;-64
2020/12/18 13:12:46;;;;;;;6.40;3.90;;;10.80;99.90;;;;;;4998811;28;21236;-65
2020/12/18 13:15:31;;;;;;;5.40;3.60;;;10.80;99.90;;;;;;4998449;28;20603;-65
2020/12/18 13:18:15;;;;;;;5.07;3.53;;;10.80;99.90;;;;;;5011120;28;21060;-65
2020/12/18 13:20:59;;;;;;;6.40;3.53;;;10.80;99.90;;;;;;5007294;28;21029;-64
2020/12/18 13:23:44;;;;;;;3.93;3.50;;;10.80;99.90;;;;;;5011395;28;20606;-65
2020/12/18 13:26:29;;;;;;;4.23;3.13;;;10.80;99.90;;;;;;4996783;28;20750;-65
2020/12/18 13:29:13;;;;;;;3.83;3.53;;;10.80;99.90;;;;;;5015070;28;20615;-65
2020/12/18 13:31:58;;;;;;;6.10;3.70;;;10.80;99.90;;;;;;5007635;28;20646;-65
2020/12/18 13:34:42;;;;;;;6.30;3.70;;;10.80;99.90;;;;;;5010275;28;21458;-65
2020/12/18 13:37:27;;;;;;;5.27;3.80;;;10.90;99.90;;;;;;5007272;28;20758;-65
2020/12/18 13:40:12;;;;;;;5.43;3.83;;;10.90;99.90;;;;;;5034131;28;20618;-63
2020/12/18 13:42:56;;;;;;;5.83;3.73;;;10.90;99.90;;;;;;5026020;28;20645;-65
2020/12/18 13:45:41;;;;;;;6.93;3.57;;;10.90;99.90;;;;;;5018486;28;21275;-71
2020/12/18 13:48:25;;;;;;;3.73;3.30;;;10.90;99.90;;;;;;5003603;28;20610;-64
2020/12/18 13:51:09;;;;;;;3.77;3.40;;;10.90;99.90;;;;;;5019110;28;20941;-66
2020/12/18 13:53:54;;;;;;;4.10;3.63;;;10.90;99.90;;;;;;5012144;28;20685;-64
2020/12/18 13:56:47;;;;;;;3.50;3.20;;;10.90;99.90;;;;;;5017519;28;22573;-66
2020/12/18 13:59:31;;;;;;;3.37;3.00;;;10.90;99.90;;;;;;5009466;28;20719;-66
2020/12/18 14:02:16;;;;;;;6.37;3.10;;;10.80;99.90;;;;;;5024808;28;20639;-66
2020/12/18 14:05:01;;;;;;;5.43;3.80;;;10.80;99.90;;;;;;5011879;28;20967;-66
2020/12/18 14:07:46;;;;;;;5.67;3.33;;;10.80;99.90;;;;;;5019879;28;20613;-66
2020/12/18 14:10:31;;;;;;;3.97;2.97;;;10.70;99.90;;;;;;5020789;28;20646;-66
2020/12/18 14:13:15;;;;;;;4.63;2.90;;;10.70;99.90;;;;;;5011749;28;20970;-66
2020/12/18 14:16:00;;;;;;;3.40;3.10;;;10.70;99.90;;;;;;5009346;28;20642;-66
2020/12/18 14:18:45;;;;;;;3.70;3.13;;;10.80;99.90;;;;;;5004801;28;20796;-70
2020/12/18 14:21:30;;;;;;;5.23;3.10;;;10.80;99.90;;;;;;5005019;28;21508;-67